createdAt,value
2022-08-09T00:00:00.951Z,33.23
2022-08-09T00:02:34.226Z,33.17
2022-08-09T00:06:12.218Z,33.24
2022-08-09T00:07:49.621Z,33.47
2022-08-09T00:10:21.453Z,33.49
2022-08-09T00:12:52.497Z,33.34
2022-08-09T00:15:20.191Z,33.49
2022-08-09T00:18:04.660Z,33.23
2022-08-09T00:20:36.586Z,33.29
2022-08-09T00:23:08.359Z,33.60
2022-08-09T00:25:51.609Z,33.15
2022-08-09T00:28:19.392Z,33.19
2022-08-09T00:30:49.452Z,33.62
2022-08-09T00:33:16.565Z,33.47
2022-08-09T00:35:43.829Z,33.21
2022-08-09T00:38:12.669Z,33.63
2022-08-09T00:40:39.819Z,33.50
2022-08-09T00:44:11.527Z,33.46
2022-08-09T00:46:07.070Z,33.83
2022-08-09T00:48:34.697Z,33.78
2022-08-09T00:51:11.759Z,33.36
2022-08-09T00:53:39.807Z,33.32
2022-08-09T00:56:10.052Z,33.59
2022-08-09T00:58:37.369Z,33.43
2022-08-09T01:01:04.501Z,33.58
2022-08-09T01:03:32.662Z,33.80
2022-08-09T01:06:18.340Z,33.57
2022-08-09T01:08:48.832Z,33.72
2022-08-09T01:11:16.838Z,33.84
2022-08-09T01:13:58.934Z,33.88
2022-08-09T01:16:26.848Z,33.61
2022-08-09T01:19:01.637Z,33.93
2022-08-09T01:21:44.461Z,34.10
2022-08-09T01:24:12.008Z,33.82
2022-08-09T01:26:39.236Z,33.88
2022-08-09T01:29:06.416Z,33.92
2022-08-09T01:32:30.001Z,34.20
2022-08-09T01:34:21.384Z,33.83
2022-08-09T01:36:48.789Z,34.22
2022-08-09T01:39:15.917Z,33.82
2022-08-09T01:41:59.922Z,33.79
2022-08-09T01:44:29.225Z,34.04
2022-08-09T01:46:57.717Z,34.24
2022-08-09T01:49:27.016Z,34.22
2022-08-09T01:52:07.604Z,34.07
2022-08-09T01:54:34.998Z,34.14
2022-08-09T01:57:04.039Z,34.39
2022-08-09T01:59:32.403Z,34.21
2022-08-09T02:02:01.186Z,34.40
2022-08-09T02:04:28.454Z,34.16
2022-08-09T02:08:34.910Z,34.35
2022-08-09T02:10:04.069Z,34.21
2022-08-09T02:12:32.202Z,34.19
2022-08-09T02:14:59.613Z,34.50
2022-08-09T02:17:59.170Z,34.35
2022-08-09T02:20:25.047Z,34.13
2022-08-09T02:22:53.873Z,34.47
2022-08-09T02:25:21.000Z,34.35
2022-08-09T02:28:00.470Z,34.14
2022-08-09T02:30:31.305Z,34.63
2022-08-09T02:32:58.394Z,34.45
2022-08-09T02:36:03.446Z,34.65
2022-08-09T02:38:27.872Z,34.39
2022-08-09T02:40:55.976Z,34.51
2022-08-09T02:43:23.137Z,34.42
2022-08-09T02:45:55.813Z,34.37
2022-08-09T02:48:31.190Z,34.31
2022-08-09T02:50:58.802Z,34.34
2022-08-09T02:53:28.849Z,34.45
2022-08-09T02:55:58.606Z,34.71
2022-08-09T02:58:35.469Z,34.72
2022-08-09T03:01:06.378Z,34.59
2022-08-09T03:04:13.057Z,34.69
2022-08-09T03:06:22.492Z,34.61
2022-08-09T03:08:49.565Z,34.63
2022-08-09T03:12:04.610Z,34.69
2022-08-09T03:14:03.715Z,34.40
2022-08-09T03:16:30.832Z,34.70
2022-08-09T03:18:58.036Z,34.81
2022-08-09T03:21:28.787Z,34.58
2022-08-09T03:24:05.163Z,34.69
2022-08-09T03:26:32.377Z,34.55
2022-08-09T03:28:59.599Z,34.51
2022-08-09T03:31:27.022Z,34.70
2022-08-09T03:33:56.505Z,34.86
2022-08-09T03:36:27.677Z,34.68
2022-08-09T03:38:55.159Z,34.85
2022-08-09T03:41:44.657Z,35.02
2022-08-09T03:44:12.128Z,35.01
2022-08-09T03:46:39.532Z,35.17
2022-08-09T03:49:08.767Z,34.85
2022-08-09T03:51:44.051Z,34.94
2022-08-09T03:54:29.794Z,35.04
2022-08-09T03:56:58.352Z,35.17
2022-08-09T03:59:27.515Z,34.81
2022-08-09T04:02:10.558Z,34.78
2022-08-09T04:04:38.783Z,35.22
2022-08-09T04:07:06.096Z,35.11
2022-08-09T04:09:41.664Z,35.00
2022-08-09T04:12:11.917Z,35.37
2022-08-09T04:15:01.627Z,35.37
2022-08-09T04:17:29.729Z,35.02
2022-08-09T04:19:57.455Z,35.01
2022-08-09T04:22:24.571Z,35.00
2022-08-09T04:24:55.074Z,35.44
2022-08-09T04:27:22.504Z,35.22
2022-08-09T04:29:50.487Z,35.01
2022-08-09T04:32:31.234Z,35.36
2022-08-09T04:35:01.335Z,35.15
2022-08-09T04:37:42.106Z,35.33
2022-08-09T04:40:18.983Z,35.32
2022-08-09T04:42:48.393Z,35.13
2022-08-09T04:45:16.624Z,35.06
2022-08-09T04:47:58.819Z,35.51
2022-08-09T04:50:33.674Z,35.18
2022-08-09T04:53:11.596Z,35.27
2022-08-09T04:55:43.907Z,35.43
2022-08-09T04:58:26.316Z,35.45
2022-08-09T05:01:16.221Z,35.62
2022-08-09T05:03:46.045Z,35.62
2022-08-09T05:06:22.079Z,35.61
2022-08-09T05:09:00.754Z,35.46
2022-08-09T05:11:32.105Z,35.49
2022-08-09T05:14:05.934Z,35.49
2022-08-09T05:16:33.640Z,35.45
2022-08-09T05:19:10.773Z,35.58
2022-08-09T05:21:47.276Z,35.71
2022-08-09T05:24:24.201Z,35.31
2022-08-09T05:26:51.427Z,35.45
2022-08-09T05:29:23.843Z,35.43
2022-08-09T05:31:59.112Z,35.30
2022-08-09T05:34:31.358Z,35.35
2022-08-09T05:36:59.121Z,35.36
2022-08-09T05:39:35.710Z,35.38
2022-08-09T05:42:06.552Z,35.33
2022-08-09T05:44:34.756Z,35.75
2022-08-09T05:47:05.552Z,35.44
2022-08-09T05:49:33.901Z,35.69
2022-08-09T05:52:19.948Z,35.75
2022-08-09T05:54:49.227Z,35.58
2022-08-09T05:57:17.359Z,35.54
2022-08-09T05:59:46.040Z,35.55
2022-08-09T06:02:17.070Z,35.43
2022-08-09T06:04:46.095Z,35.75
2022-08-09T06:07:21.666Z,35.78
2022-08-09T06:10:01.701Z,35.62
2022-08-09T06:12:29.614Z,35.63
2022-08-09T06:15:01.099Z,35.46
2022-08-09T06:17:39.001Z,35.94
2022-08-09T06:20:07.582Z,35.54
2022-08-09T06:22:35.382Z,35.50
2022-08-09T06:25:02.995Z,35.77
2022-08-09T06:27:42.175Z,35.49
2022-08-09T06:30:10.117Z,35.75
2022-08-09T06:32:58.926Z,35.80
2022-08-09T06:35:55.883Z,35.52
2022-08-09T06:38:13.826Z,35.75
2022-08-09T06:40:43.228Z,35.91
2022-08-09T06:43:11.471Z,35.59
2022-08-09T06:46:04.880Z,35.57
2022-08-09T06:48:30.610Z,35.53
2022-08-09T06:50:58.290Z,35.53
2022-08-09T06:53:25.355Z,36.03
2022-08-09T06:55:53.316Z,35.95
2022-08-09T07:00:46.534Z,35.55
2022-08-09T07:01:07.864Z,35.70
2022-08-09T07:03:39.643Z,35.73
2022-08-09T07:06:20.832Z,35.94
2022-08-09T07:08:49.721Z,35.86
2022-08-09T07:11:23.549Z,35.87
2022-08-09T07:14:04.114Z,35.79
2022-08-09T07:16:42.390Z,36.02
2022-08-09T07:19:18.793Z,35.61
2022-08-09T07:21:57.046Z,36.04
2022-08-09T07:24:32.836Z,35.83
2022-08-09T07:27:21.071Z,35.61
2022-08-09T07:29:56.968Z,36.01
2022-08-09T07:32:33.223Z,35.68
2022-08-09T07:35:02.735Z,35.96
2022-08-09T07:37:42.938Z,35.94
2022-08-09T07:40:12.909Z,35.81
2022-08-09T07:42:40.293Z,36.13
2022-08-09T07:45:22.692Z,35.98
2022-08-09T07:48:01.409Z,35.98
2022-08-09T07:50:34.609Z,36.05
2022-08-09T07:53:03.077Z,36.17
2022-08-09T07:55:41.351Z,36.05
2022-08-09T07:58:19.193Z,36.06
2022-08-09T08:00:56.069Z,36.20
2022-08-09T08:03:26.814Z,35.52
2022-08-09T08:05:58.280Z,35.37
2022-08-09T08:09:01.778Z,35.36
2022-08-09T08:12:10.123Z,35.51
2022-08-09T08:13:59.703Z,35.31
2022-08-09T08:16:31.277Z,34.87
2022-08-09T08:18:59.366Z,35.07
2022-08-09T08:21:26.668Z,35.00
2022-08-09T08:23:55.724Z,34.89
2022-08-09T08:26:42.165Z,34.90
2022-08-09T08:29:10.331Z,34.71
2022-08-09T08:32:02.322Z,34.45
2022-08-09T08:34:25.326Z,34.36
2022-08-09T08:36:52.750Z,34.54
2022-08-09T08:39:21.997Z,34.68
2022-08-09T08:41:51.914Z,34.46
2022-08-09T08:44:27.094Z,34.34
2022-08-09T08:46:59.534Z,34.52
2022-08-09T08:49:38.530Z,34.74
2022-08-09T08:52:48.519Z,34.69
2022-08-09T08:55:03.823Z,34.20
2022-08-09T08:57:34.971Z,34.19
2022-08-09T09:00:12.850Z,34.27
2022-08-09T09:02:52.301Z,34.04
2022-08-09T09:05:20.238Z,33.99
2022-08-09T09:08:00.355Z,33.92
2022-08-09T09:10:27.403Z,34.16
2022-08-09T09:12:54.456Z,34.03
2022-08-09T09:15:28.220Z,34.33
2022-08-09T09:17:55.923Z,34.36
2022-08-09T09:20:22.995Z,34.16
2022-08-09T09:22:52.990Z,34.21
2022-08-09T09:26:01.955Z,34.13
2022-08-09T09:28:07.820Z,34.34
2022-08-09T09:30:40.887Z,34.01
2022-08-09T09:33:15.525Z,33.98
2022-08-09T09:35:53.025Z,33.88
2022-08-09T09:38:36.544Z,33.80
2022-08-09T09:41:04.437Z,34.22
2022-08-09T09:43:41.000Z,33.90
2022-08-09T09:48:56.006Z,34.13
2022-08-09T09:51:25.971Z,33.81
2022-08-09T09:54:17.869Z,33.70
2022-08-09T09:58:00.157Z,33.94
2022-08-09T09:59:35.394Z,33.73
2022-08-09T10:02:02.760Z,33.52
2022-08-09T10:04:31.215Z,33.68
2022-08-09T10:06:58.777Z,33.92
2022-08-09T10:09:30.386Z,33.90
2022-08-09T10:12:11.475Z,33.65
2022-08-09T10:14:47.975Z,33.56
2022-08-09T10:17:50.755Z,33.71
2022-08-09T10:20:03.319Z,33.37
2022-08-09T10:22:32.673Z,33.20
2022-08-09T10:25:04.048Z,33.15
2022-08-09T10:27:45.409Z,33.43
2022-08-09T10:33:44.804Z,33.32
2022-08-09T10:36:00.852Z,33.08
2022-08-09T10:38:54.655Z,33.43
2022-08-09T10:41:15.646Z,33.30
2022-08-09T10:43:47.081Z,33.55
2022-08-09T10:46:27.242Z,33.60
2022-08-09T10:48:54.311Z,33.18
2022-08-09T10:51:21.404Z,33.34
2022-08-09T10:53:57.306Z,33.01
2022-08-09T10:56:24.447Z,33.25
2022-08-09T10:58:54.130Z,33.37
2022-08-09T11:03:15.112Z,33.47
2022-08-09T11:04:27.886Z,32.94
2022-08-09T11:06:55.363Z,33.29
2022-08-09T11:09:26.586Z,32.83
2022-08-09T11:12:06.269Z,33.32
2022-08-09T11:14:35.405Z,33.25
2022-08-09T11:17:04.872Z,33.10
2022-08-09T11:20:11.819Z,33.04
2022-08-09T11:22:24.468Z,32.96
2022-08-09T11:24:52.901Z,33.01
2022-08-09T11:28:05.379Z,32.89
2022-08-09T11:30:32.130Z,32.92
2022-08-09T11:32:54.102Z,32.75
2022-08-09T11:35:26.679Z,33.29
2022-08-09T11:38:03.202Z,33.17
2022-08-09T11:40:32.257Z,33.08
2022-08-09T11:43:01.121Z,33.07
2022-08-09T11:45:41.976Z,33.25
2022-08-09T11:48:19.365Z,33.01
2022-08-09T11:52:49.109Z,33.00
2022-08-09T11:54:00.007Z,32.78
2022-08-09T11:56:42.832Z,32.78
2022-08-09T11:59:14.270Z,32.99
2022-08-09T12:02:18.352Z,33.14
2022-08-09T12:04:37.232Z,33.69
2022-08-09T12:07:07.715Z,33.48
2022-08-09T12:09:36.164Z,33.47
2022-08-09T12:12:12.910Z,32.82
2022-08-09T12:15:07.591Z,32.59
2022-08-09T12:17:44.515Z,32.66
2022-08-09T12:20:16.794Z,32.72
2022-08-09T12:22:50.264Z,32.67
2022-08-09T12:25:17.618Z,32.49
2022-08-09T12:29:12.149Z,32.88
2022-08-09T12:30:50.965Z,32.78
2022-08-09T12:33:19.151Z,32.71
2022-08-09T12:35:50.541Z,32.50
2022-08-09T12:38:17.755Z,32.63
2022-08-09T12:41:01.318Z,32.85
2022-08-09T12:44:06.555Z,32.40
2022-08-09T12:46:15.609Z,32.48
2022-08-09T12:48:42.904Z,31.99
2022-08-09T12:51:11.579Z,32.11
2022-08-09T12:53:41.038Z,32.57
2022-08-09T12:56:39.253Z,32.42
2022-08-09T12:58:59.153Z,32.40
2022-08-09T13:01:29.640Z,32.40
2022-08-09T13:03:59.188Z,32.21
2022-08-09T13:06:34.924Z,32.09
2022-08-09T13:09:02.626Z,32.32
2022-08-09T13:11:33.280Z,31.95
2022-08-09T13:14:40.663Z,32.08
2022-08-09T13:16:49.493Z,32.17
2022-08-09T13:19:16.612Z,32.25
2022-08-09T13:22:36.525Z,32.23
2022-08-09T13:24:52.952Z,32.21
2022-08-09T13:27:19.694Z,32.05
2022-08-09T13:30:04.176Z,31.83
2022-08-09T13:32:34.142Z,32.26
2022-08-09T13:35:01.186Z,32.08
2022-08-09T13:37:52.490Z,32.02
2022-08-09T13:41:50.484Z,31.96
2022-08-09T13:43:05.142Z,31.95
2022-08-09T13:46:44.558Z,32.23
2022-08-09T13:48:19.483Z,32.23
2022-08-09T13:50:46.606Z,31.75
2022-08-09T13:53:16.629Z,31.80
2022-08-09T13:55:44.884Z,32.29
2022-08-09T13:58:15.110Z,32.18
2022-08-09T14:00:49.921Z,32.01
2022-08-09T14:04:03.541Z,32.02
2022-08-09T14:06:14.693Z,32.24
2022-08-09T14:08:46.798Z,32.03
2022-08-09T14:11:16.188Z,32.37
2022-08-09T14:14:15.128Z,32.00
2022-08-09T14:16:30.568Z,32.29
2022-08-09T14:18:58.406Z,32.03
2022-08-09T14:21:29.136Z,32.21
2022-08-09T14:23:57.610Z,32.22
2022-08-09T14:26:32.238Z,32.13
2022-08-09T14:29:00.307Z,31.89
2022-08-09T14:31:36.173Z,31.64
2022-08-09T14:34:14.475Z,32.16
2022-08-09T14:36:45.554Z,32.21
2022-08-09T14:39:15.956Z,32.12
2022-08-09T14:41:44.069Z,32.23
2022-08-09T14:44:12.091Z,31.85
2022-08-09T14:47:04.924Z,31.89
2022-08-09T14:49:28.952Z,31.94
2022-08-09T14:52:02.036Z,31.84
2022-08-09T14:54:29.764Z,32.01
2022-08-09T14:56:58.037Z,32.00
2022-08-09T14:59:27.158Z,32.14
2022-08-09T15:01:54.394Z,31.74
2022-08-09T15:04:23.533Z,31.87
2022-08-09T15:06:51.547Z,32.02
2022-08-09T15:09:30.748Z,31.68
2022-08-09T15:12:08.157Z,32.22
2022-08-09T15:14:38.191Z,32.16
2022-08-09T15:17:09.019Z,32.15
2022-08-09T15:19:36.572Z,32.21
2022-08-09T15:22:03.882Z,32.13
2022-08-09T15:24:32.751Z,32.37
2022-08-09T15:26:59.866Z,32.47
2022-08-09T15:30:56.811Z,31.92
2022-08-09T15:32:29.873Z,32.20
2022-08-09T15:35:00.236Z,32.18
2022-08-09T15:37:57.233Z,32.08
2022-08-09T15:40:25.139Z,32.20
2022-08-09T15:42:58.640Z,32.24
2022-08-09T15:45:29.153Z,32.12
2022-08-09T15:48:03.291Z,32.17
2022-08-09T15:50:39.061Z,32.07
2022-08-09T15:53:18.538Z,32.16
2022-08-09T15:56:04.548Z,32.06
2022-08-09T15:58:43.389Z,32.03
2022-08-09T16:01:10.587Z,32.00
2022-08-09T16:03:38.791Z,31.79
2022-08-09T16:06:29.351Z,32.09
2022-08-09T16:08:56.761Z,32.49
2022-08-09T16:11:30.798Z,31.87
2022-08-09T16:14:05.423Z,31.58
2022-08-09T16:16:37.252Z,31.77
2022-08-09T16:19:05.575Z,31.80
2022-08-09T16:21:35.118Z,31.57
2022-08-09T16:24:02.882Z,31.54
2022-08-09T16:26:34.689Z,31.80
2022-08-09T16:29:10.560Z,31.70
2022-08-09T16:32:19.978Z,31.61
2022-08-09T16:34:26.308Z,31.25
2022-08-09T16:36:55.815Z,31.25
2022-08-09T16:39:25.901Z,31.49
2022-08-09T16:42:02.998Z,31.71
2022-08-09T16:44:32.081Z,31.53
2022-08-09T16:47:03.800Z,31.86
2022-08-09T16:50:31.320Z,31.70
2022-08-09T16:52:19.160Z,31.63
2022-08-09T16:54:46.299Z,31.84
2022-08-09T16:57:16.559Z,31.88
2022-08-09T16:59:44.138Z,31.82
2022-08-09T17:02:17.973Z,32.01
2022-08-09T17:04:50.426Z,31.40
2022-08-09T17:08:45.641Z,31.64
2022-08-09T17:10:06.824Z,32.00
2022-08-09T17:12:36.180Z,31.63
2022-08-09T17:15:30.498Z,31.91
2022-08-09T17:17:51.536Z,32.02
2022-08-09T17:20:36.997Z,32.06
2022-08-09T17:23:06.163Z,32.22
2022-08-09T17:25:37.639Z,32.12
2022-08-09T17:28:05.507Z,32.03
2022-08-09T17:30:32.603Z,31.40
2022-08-09T17:33:01.350Z,32.01
2022-08-09T17:35:32.868Z,32.31
2022-08-09T17:38:02.453Z,31.98
2022-08-09T17:40:41.801Z,32.14
2022-08-09T17:43:34.479Z,32.24
2022-08-09T17:46:04.317Z,32.13
2022-08-09T17:48:33.494Z,31.78
2022-08-09T17:51:09.432Z,31.22
2022-08-09T17:53:42.817Z,31.74
2022-08-09T17:56:10.919Z,31.71
2022-08-09T17:58:37.954Z,31.95
2022-08-09T18:01:10.998Z,32.09
2022-08-09T18:03:49.470Z,32.03
2022-08-09T18:06:31.088Z,31.70
2022-08-09T18:08:59.597Z,31.71
2022-08-09T18:11:26.767Z,31.52
2022-08-09T18:14:00.740Z,31.86
2022-08-09T18:16:30.922Z,32.20
2022-08-09T18:18:58.063Z,32.16
2022-08-09T18:21:31.852Z,32.15
2022-08-09T18:24:14.084Z,32.08
2022-08-09T18:26:46.931Z,31.92
2022-08-09T18:30:36.115Z,32.13
2022-08-09T18:32:03.517Z,32.37
2022-08-09T18:34:35.186Z,32.29
2022-08-09T18:37:02.564Z,32.13
2022-08-09T18:39:32.082Z,32.39
2022-08-09T18:42:01.073Z,32.13
2022-08-09T18:44:28.306Z,32.25
2022-08-09T18:47:07.365Z,32.47
2022-08-09T18:49:41.577Z,32.46
2022-08-09T18:52:11.793Z,32.38
2022-08-09T18:54:39.106Z,32.24
2022-08-09T18:57:09.290Z,32.41
2022-08-09T18:59:48.504Z,32.45
2022-08-09T19:02:16.714Z,32.47
2022-08-09T19:04:47.796Z,32.57
2022-08-09T19:07:31.467Z,32.54
2022-08-09T19:10:14.096Z,32.52
2022-08-09T19:12:45.607Z,32.86
2022-08-09T19:15:22.853Z,32.55
2022-08-09T19:17:54.612Z,32.50
2022-08-09T19:20:23.710Z,32.78
2022-08-09T19:22:54.682Z,32.36
2022-08-09T19:25:42.590Z,32.67
2022-08-09T19:28:09.199Z,32.42
2022-08-09T19:30:40.619Z,32.78
2022-08-09T19:33:19.454Z,32.52
2022-08-09T19:35:57.459Z,32.61
2022-08-09T19:38:25.775Z,32.89
2022-08-09T19:40:53.924Z,32.46
2022-08-09T19:44:00.275Z,32.79
2022-08-09T19:46:14.433Z,32.38
2022-08-09T19:49:00.363Z,32.54
2022-08-09T19:51:30.931Z,32.35
2022-08-09T19:53:58.364Z,32.14
2022-08-09T19:56:28.993Z,32.12
2022-08-09T19:59:39.439Z,32.12
2022-08-09T20:01:52.384Z,31.96
2022-08-09T20:04:37.366Z,31.87
2022-08-09T20:07:21.035Z,31.63
2022-08-09T20:09:49.610Z,31.87
2022-08-09T20:12:30.002Z,32.30
2022-08-09T20:15:04.889Z,31.81
2022-08-09T20:17:54.531Z,32.06
2022-08-09T20:20:22.221Z,32.08
2022-08-09T20:22:51.800Z,32.17
2022-08-09T20:25:23.601Z,32.26
2022-08-09T20:27:51.102Z,32.22
2022-08-09T20:30:21.679Z,32.31
2022-08-09T20:32:52.177Z,31.98
2022-08-09T20:35:19.924Z,31.63
2022-08-09T20:38:22.316Z,31.85
2022-08-09T20:40:34.148Z,32.25
2022-08-09T20:43:17.856Z,31.74
2022-08-09T20:46:01.309Z,31.77
2022-08-09T20:48:35.427Z,31.99
2022-08-09T20:51:03.156Z,32.13
2022-08-09T20:53:36.846Z,31.84
2022-08-09T20:56:05.766Z,31.99
2022-08-09T20:58:33.422Z,32.12
2022-08-09T21:01:14.166Z,32.43
2022-08-09T21:05:49.360Z,32.02
2022-08-09T21:06:35.048Z,32.36
2022-08-09T21:09:02.891Z,32.00
2022-08-09T21:14:17.636Z,31.92
2022-08-09T21:16:45.634Z,31.73
2022-08-09T21:20:17.249Z,32.23
2022-08-09T21:22:00.187Z,31.89
2022-08-09T21:24:32.756Z,31.91
2022-08-09T21:27:10.380Z,32.05
2022-08-09T21:29:48.706Z,32.19
2022-08-09T21:32:18.748Z,32.44
2022-08-09T21:34:49.309Z,32.11
2022-08-09T21:37:18.524Z,32.03
2022-08-09T21:39:49.641Z,32.06
2022-08-09T21:42:16.982Z,32.33
2022-08-09T21:44:44.413Z,32.59
2022-08-09T21:47:11.666Z,32.28
2022-08-09T21:49:45.152Z,32.58
2022-08-09T21:52:16.459Z,32.45
2022-08-09T21:54:46.199Z,32.60
2022-08-09T21:57:37.762Z,32.73
2022-08-09T22:00:03.549Z,32.41
2022-08-09T22:02:36.192Z,32.76
2022-08-09T22:05:17.122Z,32.50
2022-08-09T22:07:51.861Z,32.72
2022-08-09T22:10:22.798Z,32.61
2022-08-09T22:12:50.946Z,33.05
2022-08-09T22:15:20.755Z,32.68
2022-08-09T22:17:50.626Z,33.10
2022-08-09T22:20:21.786Z,33.07
2022-08-09T22:22:54.498Z,32.83
2022-08-09T22:26:07.517Z,32.79
2022-08-09T22:28:08.661Z,32.98
2022-08-09T22:30:36.626Z,33.29
2022-08-09T22:33:03.858Z,33.12
2022-08-09T22:36:02.718Z,33.18
2022-08-09T22:38:23.819Z,32.98
2022-08-09T22:40:57.446Z,33.13
2022-08-09T22:44:02.605Z,33.44
2022-08-09T22:48:14.261Z,33.03
2022-08-09T22:49:01.897Z,33.02
2022-08-09T22:51:38.183Z,32.95
2022-08-09T22:54:05.515Z,33.38
2022-08-09T22:56:35.369Z,33.11
2022-08-09T22:59:05.758Z,33.44
2022-08-09T23:01:50.489Z,33.22
2022-08-09T23:04:17.603Z,33.70
2022-08-09T23:07:03.377Z,33.58
2022-08-09T23:09:38.450Z,33.50
2022-08-09T23:12:05.510Z,33.41
2022-08-09T23:14:37.622Z,33.85
2022-08-09T23:17:09.547Z,33.37
2022-08-09T23:20:02.500Z,33.62
2022-08-09T23:22:23.658Z,33.90
2022-08-09T23:24:50.698Z,33.67
2022-08-09T23:27:17.730Z,33.39
2022-08-09T23:29:44.843Z,33.46
2022-08-09T23:32:11.893Z,33.68
2022-08-09T23:34:38.948Z,34.00
2022-08-09T23:37:06.024Z,33.74
2022-08-09T23:39:33.132Z,33.73
2022-08-09T23:42:00.214Z,33.90
2022-08-09T23:44:27.264Z,33.78
2022-08-09T23:46:57.364Z,33.76
2022-08-09T23:49:25.127Z,34.10
2022-08-09T23:51:52.325Z,33.78
2022-08-09T23:54:19.753Z,34.11
2022-08-09T23:56:54.203Z,33.63
2022-08-09T23:59:22.491Z,34.19
